sensor_id;sensor_type;location;lat;lon;timestamp;temperature;humidity
14884;DHT22;7534;50.762;7.000;2024-01-27T00:02:08;3.20;83.20
14884;DHT22;7534;50.762;7.000;2024-01-27T00:04:35;3.20;83.10
14884;DHT22;7534;50.762;7.000;2024-01-27T00:07:02;3.10;83.00
14884;DHT22;7534;50.762;7.000;2024-01-27T00:09:28;3.10;83.10
14884;DHT22;7534;50.762;7.000;2024-01-27T00:11:54;3.10;83.40
14884;DHT22;7534;50.762;7.000;2024-01-27T00:14:20;3.10;83.20
14884;DHT22;7534;50.762;7.000;2024-01-27T00:16:46;3.10;83.10
14884;DHT22;7534;50.762;7.000;2024-01-27T00:19:12;3.00;83.20
14884;DHT22;7534;50.762;7.000;2024-01-27T00:21:37;3.00;83.50
14884;DHT22;7534;50.762;7.000;2024-01-27T00:24:03;2.90;83.60
14884;DHT22;7534;50.762;7.000;2024-01-27T00:26:29;3.00;83.60
14884;DHT22;7534;50.762;7.000;2024-01-27T00:28:55;3.00;83.40
14884;DHT22;7534;50.762;7.000;2024-01-27T00:31:21;3.00;83.40
14884;DHT22;7534;50.762;7.000;2024-01-27T00:33:47;3.00;83.50
14884;DHT22;7534;50.762;7.000;2024-01-27T00:36:13;3.00;83.30
14884;DHT22;7534;50.762;7.000;2024-01-27T00:38:38;3.00;83.20
14884;DHT22;7534;50.762;7.000;2024-01-27T00:41:04;2.90;83.40
14884;DHT22;7534;50.762;7.000;2024-01-27T00:43:30;2.90;83.80
14884;DHT22;7534;50.762;7.000;2024-01-27T00:45:56;2.80;84.00
14884;DHT22;7534;50.762;7.000;2024-01-27T00:48:22;2.80;84.00
14884;DHT22;7534;50.762;7.000;2024-01-27T00:50:48;2.80;84.00
14884;DHT22;7534;50.762;7.000;2024-01-27T00:53:14;2.70;84.20
14884;DHT22;7534;50.762;7.000;2024-01-27T00:55:39;2.80;84.30
14884;DHT22;7534;50.762;7.000;2024-01-27T00:58:07;2.80;84.40
14884;DHT22;7534;50.762;7.000;2024-01-27T01:00:32;2.80;84.20
14884;DHT22;7534;50.762;7.000;2024-01-27T01:02:58;2.80;84.10
14884;DHT22;7534;50.762;7.000;2024-01-27T01:05:24;2.80;83.90
14884;DHT22;7534;50.762;7.000;2024-01-27T01:07:50;2.80;83.90
14884;DHT22;7534;50.762;7.000;2024-01-27T01:10:15;2.80;84.10
14884;DHT22;7534;50.762;7.000;2024-01-27T01:12:41;2.80;84.10
14884;DHT22;7534;50.762;7.000;2024-01-27T01:15:07;2.80;84.00
14884;DHT22;7534;50.762;7.000;2024-01-27T01:17:33;2.80;83.90
14884;DHT22;7534;50.762;7.000;2024-01-27T01:19:59;2.80;84.10
14884;DHT22;7534;50.762;7.000;2024-01-27T01:22:25;2.80;84.30
14884;DHT22;7534;50.762;7.000;2024-01-27T01:24:51;2.80;84.20
14884;DHT22;7534;50.762;7.000;2024-01-27T01:27:17;2.80;84.00
14884;DHT22;7534;50.762;7.000;2024-01-27T01:29:44;2.70;84.20
14884;DHT22;7534;50.762;7.000;2024-01-27T01:32:10;2.60;84.60
14884;DHT22;7534;50.762;7.000;2024-01-27T01:34:36;2.50;84.90
14884;DHT22;7534;50.762;7.000;2024-01-27T01:37:02;2.50;85.10
14884;DHT22;7534;50.762;7.000;2024-01-27T01:39:28;2.60;85.30
14884;DHT22;7534;50.762;7.000;2024-01-27T01:41:54;2.70;85.00
14884;DHT22;7534;50.762;7.000;2024-01-27T01:44:20;2.70;84.60
14884;DHT22;7534;50.762;7.000;2024-01-27T01:46:47;2.70;84.40
14884;DHT22;7534;50.762;7.000;2024-01-27T01:49:13;2.80;84.20
14884;DHT22;7534;50.762;7.000;2024-01-27T01:51:39;2.80;84.10
14884;DHT22;7534;50.762;7.000;2024-01-27T01:54:05;2.80;83.90
14884;DHT22;7534;50.762;7.000;2024-01-27T01:56:32;2.80;83.80
14884;DHT22;7534;50.762;7.000;2024-01-27T01:58:57;2.80;83.50
14884;DHT22;7534;50.762;7.000;2024-01-27T02:01:24;2.80;83.70
14884;DHT22;7534;50.762;7.000;2024-01-27T02:03:57;2.90;83.60
14884;DHT22;7534;50.762;7.000;2024-01-27T02:06:23;2.90;83.40
14884;DHT22;7534;50.762;7.000;2024-01-27T02:08:50;2.90;83.20
14884;DHT22;7534;50.762;7.000;2024-01-27T02:11:16;2.90;83.20
14884;DHT22;7534;50.762;7.000;2024-01-27T02:13:42;2.90;83.30
14884;DHT22;7534;50.762;7.000;2024-01-27T02:16:09;2.90;83.20
14884;DHT22;7534;50.762;7.000;2024-01-27T02:18:35;2.90;83.20
14884;DHT22;7534;50.762;7.000;2024-01-27T02:21:00;2.90;83.20
14884;DHT22;7534;50.762;7.000;2024-01-27T02:23:26;2.80;83.10
14884;DHT22;7534;50.762;7.000;2024-01-27T02:25:52;2.80;83.20
14884;DHT22;7534;50.762;7.000;2024-01-27T02:28:18;2.90;83.10
14884;DHT22;7534;50.762;7.000;2024-01-27T02:30:44;2.80;83.20
14884;DHT22;7534;50.762;7.000;2024-01-27T02:33:10;2.80;83.20
14884;DHT22;7534;50.762;7.000;2024-01-27T02:35:35;2.80;83.10
14884;DHT22;7534;50.762;7.000;2024-01-27T02:38:01;2.90;83.00
14884;DHT22;7534;50.762;7.000;2024-01-27T02:40:27;2.80;82.90
14884;DHT22;7534;50.762;7.000;2024-01-27T02:42:53;2.80;83.20
14884;DHT22;7534;50.762;7.000;2024-01-27T02:45:19;2.80;83.30
14884;DHT22;7534;50.762;7.000;2024-01-27T02:47:45;2.80;83.20
14884;DHT22;7534;50.762;7.000;2024-01-27T02:50:11;2.90;83.00
14884;DHT22;7534;50.762;7.000;2024-01-27T02:52:37;2.90;83.10
14884;DHT22;7534;50.762;7.000;2024-01-27T02:55:03;2.90;83.00
14884;DHT22;7534;50.762;7.000;2024-01-27T02:57:29;2.90;83.00
14884;DHT22;7534;50.762;7.000;2024-01-27T02:59:55;2.90;82.80
14884;DHT22;7534;50.762;7.000;2024-01-27T03:02:20;2.90;82.80
14884;DHT22;7534;50.762;7.000;2024-01-27T03:04:46;2.90;82.70
14884;DHT22;7534;50.762;7.000;2024-01-27T03:07:12;2.80;82.80
14884;DHT22;7534;50.762;7.000;2024-01-27T03:09:38;2.80;82.80
14884;DHT22;7534;50.762;7.000;2024-01-27T03:12:04;2.70;83.20
14884;DHT22;7534;50.762;7.000;2024-01-27T03:14:30;2.70;83.40
14884;DHT22;7534;50.762;7.000;2024-01-27T03:16:55;2.70;83.40
14884;DHT22;7534;50.762;7.000;2024-01-27T03:19:21;2.70;83.30
14884;DHT22;7534;50.762;7.000;2024-01-27T03:21:47;2.70;83.50
14884;DHT22;7534;50.762;7.000;2024-01-27T03:24:13;2.70;83.70
14884;DHT22;7534;50.762;7.000;2024-01-27T03:26:39;2.70;83.70
14884;DHT22;7534;50.762;7.000;2024-01-27T03:29:05;2.60;83.40
14884;DHT22;7534;50.762;7.000;2024-01-27T03:31:31;2.70;83.40
14884;DHT22;7534;50.762;7.000;2024-01-27T03:34:01;2.70;83.40
14884;DHT22;7534;50.762;7.000;2024-01-27T03:36:28;2.70;83.20
14884;DHT22;7534;50.762;7.000;2024-01-27T03:38:56;2.70;83.20
14884;DHT22;7534;50.762;7.000;2024-01-27T03:41:23;2.60;83.40
14884;DHT22;7534;50.762;7.000;2024-01-27T03:43:49;2.60;83.50
14884;DHT22;7534;50.762;7.000;2024-01-27T03:46:15;2.60;83.60
14884;DHT22;7534;50.762;7.000;2024-01-27T03:48:41;2.50;83.80
14884;DHT22;7534;50.762;7.000;2024-01-27T03:51:07;2.60;83.80
14884;DHT22;7534;50.762;7.000;2024-01-27T03:53:33;2.50;83.80
14884;DHT22;7534;50.762;7.000;2024-01-27T03:55:59;2.50;83.80
14884;DHT22;7534;50.762;7.000;2024-01-27T03:58:28;2.50;84.00
14884;DHT22;7534;50.762;7.000;2024-01-27T04:00:54;2.50;84.10
14884;DHT22;7534;50.762;7.000;2024-01-27T04:03:19;2.50;84.20
14884;DHT22;7534;50.762;7.000;2024-01-27T04:05:45;2.50;84.10
14884;DHT22;7534;50.762;7.000;2024-01-27T04:08:11;2.50;84.00
14884;DHT22;7534;50.762;7.000;2024-01-27T04:10:37;2.40;84.20
14884;DHT22;7534;50.762;7.000;2024-01-27T04:13:03;2.40;84.20
14884;DHT22;7534;50.762;7.000;2024-01-27T04:15:29;2.40;84.10
14884;DHT22;7534;50.762;7.000;2024-01-27T04:17:55;2.50;84.30
14884;DHT22;7534;50.762;7.000;2024-01-27T04:20:21;2.40;84.10
14884;DHT22;7534;50.762;7.000;2024-01-27T04:22:47;2.40;84.50
14884;DHT22;7534;50.762;7.000;2024-01-27T04:25:13;2.40;84.50
14884;DHT22;7534;50.762;7.000;2024-01-27T04:27:39;2.50;84.50
14884;DHT22;7534;50.762;7.000;2024-01-27T04:30:07;2.50;84.50
14884;DHT22;7534;50.762;7.000;2024-01-27T04:32:34;2.50;84.10
14884;DHT22;7534;50.762;7.000;2024-01-27T04:35:00;2.50;84.00
14884;DHT22;7534;50.762;7.000;2024-01-27T04:37:26;2.50;84.10
14884;DHT22;7534;50.762;7.000;2024-01-27T04:39:52;2.50;84.00
14884;DHT22;7534;50.762;7.000;2024-01-27T04:42:17;2.40;83.90
14884;DHT22;7534;50.762;7.000;2024-01-27T04:44:43;2.40;84.00
14884;DHT22;7534;50.762;7.000;2024-01-27T04:47:09;2.40;84.20
14884;DHT22;7534;50.762;7.000;2024-01-27T04:49:34;2.30;84.40
14884;DHT22;7534;50.762;7.000;2024-01-27T04:52:00;2.20;84.60
14884;DHT22;7534;50.762;7.000;2024-01-27T04:54:26;2.20;84.70
14884;DHT22;7534;50.762;7.000;2024-01-27T04:56:52;2.20;85.20
14884;DHT22;7534;50.762;7.000;2024-01-27T04:59:17;2.10;85.30
14884;DHT22;7534;50.762;7.000;2024-01-27T05:01:46;2.00;85.70
14884;DHT22;7534;50.762;7.000;2024-01-27T05:04:13;1.90;85.80
14884;DHT22;7534;50.762;7.000;2024-01-27T05:06:38;1.80;86.50
14884;DHT22;7534;50.762;7.000;2024-01-27T05:09:09;1.70;86.30
14884;DHT22;7534;50.762;7.000;2024-01-27T05:11:34;1.60;86.60
14884;DHT22;7534;50.762;7.000;2024-01-27T05:14:00;1.50;86.90
14884;DHT22;7534;50.762;7.000;2024-01-27T05:16:27;1.30;87.40
14884;DHT22;7534;50.762;7.000;2024-01-27T05:18:53;1.10;88.00
14884;DHT22;7534;50.762;7.000;2024-01-27T05:21:19;1.10;88.70
14884;DHT22;7534;50.762;7.000;2024-01-27T05:23:44;0.90;88.90
14884;DHT22;7534;50.762;7.000;2024-01-27T05:26:10;0.90;89.40
14884;DHT22;7534;50.762;7.000;2024-01-27T05:28:37;0.70;89.50
14884;DHT22;7534;50.762;7.000;2024-01-27T05:31:06;0.50;90.10
14884;DHT22;7534;50.762;7.000;2024-01-27T05:33:33;0.40;90.60
14884;DHT22;7534;50.762;7.000;2024-01-27T05:35:59;0.30;90.90
14884;DHT22;7534;50.762;7.000;2024-01-27T05:38:24;0.20;91.70
14884;DHT22;7534;50.762;7.000;2024-01-27T05:40:51;0.20;92.70
14884;DHT22;7534;50.762;7.000;2024-01-27T05:43:17;0.20;92.70
14884;DHT22;7534;50.762;7.000;2024-01-27T05:45:43;0.10;92.30
14884;DHT22;7534;50.762;7.000;2024-01-27T05:48:10;0.00;92.70
14884;DHT22;7534;50.762;7.000;2024-01-27T05:50:36;0.00;93.40
14884;DHT22;7534;50.762;7.000;2024-01-27T05:53:02;-0.10;93.20
14884;DHT22;7534;50.762;7.000;2024-01-27T05:55:28;-0.30;93.20
14884;DHT22;7534;50.762;7.000;2024-01-27T05:57:54;-0.30;94.10
14884;DHT22;7534;50.762;7.000;2024-01-27T06:00:22;-0.10;94.70
14884;DHT22;7534;50.762;7.000;2024-01-27T06:02:47;-0.10;94.10
14884;DHT22;7534;50.762;7.000;2024-01-27T06:05:13;-0.30;93.20
14884;DHT22;7534;50.762;7.000;2024-01-27T06:07:39;-0.50;92.60
14884;DHT22;7534;50.762;7.000;2024-01-27T06:10:09;-0.60;92.90
14884;DHT22;7534;50.762;7.000;2024-01-27T06:12:35;-0.80;93.20
14884;DHT22;7534;50.762;7.000;2024-01-27T06:15:01;-0.80;93.40
14884;DHT22;7534;50.762;7.000;2024-01-27T06:17:28;-0.90;93.50
14884;DHT22;7534;50.762;7.000;2024-01-27T06:19:54;-1.00;93.70
14884;DHT22;7534;50.762;7.000;2024-01-27T06:22:20;-1.00;94.00
14884;DHT22;7534;50.762;7.000;2024-01-27T06:24:46;-1.10;94.10
14884;DHT22;7534;50.762;7.000;2024-01-27T06:27:12;-1.20;94.10
14884;DHT22;7534;50.762;7.000;2024-01-27T06:29:37;-1.40;94.10
14884;DHT22;7534;50.762;7.000;2024-01-27T06:32:05;-1.50;94.20
14884;DHT22;7534;50.762;7.000;2024-01-27T06:34:32;-1.50;94.60
14884;DHT22;7534;50.762;7.000;2024-01-27T06:36:58;-1.50;94.70
14884;DHT22;7534;50.762;7.000;2024-01-27T06:39:24;-1.60;94.80
14884;DHT22;7534;50.762;7.000;2024-01-27T06:41:50;-1.60;95.00
14884;DHT22;7534;50.762;7.000;2024-01-27T06:44:15;-1.60;95.50
14884;DHT22;7534;50.762;7.000;2024-01-27T06:46:41;-1.60;95.90
14884;DHT22;7534;50.762;7.000;2024-01-27T06:49:08;-1.60;96.00
14884;DHT22;7534;50.762;7.000;2024-01-27T06:51:34;-1.60;96.00
14884;DHT22;7534;50.762;7.000;2024-01-27T06:53:59;-1.60;96.10
14884;DHT22;7534;50.762;7.000;2024-01-27T06:56:25;-1.60;96.20
14884;DHT22;7534;50.762;7.000;2024-01-27T06:58:51;-1.70;96.10
14884;DHT22;7534;50.762;7.000;2024-01-27T07:01:17;-1.70;96.00
14884;DHT22;7534;50.762;7.000;2024-01-27T07:03:43;-1.80;96.30
14884;DHT22;7534;50.762;7.000;2024-01-27T07:06:10;-1.80;96.30
14884;DHT22;7534;50.762;7.000;2024-01-27T07:08:35;-1.80;96.40
14884;DHT22;7534;50.762;7.000;2024-01-27T07:11:01;-1.80;96.30
14884;DHT22;7534;50.762;7.000;2024-01-27T07:13:27;-1.90;96.10
14884;DHT22;7534;50.762;7.000;2024-01-27T07:15:55;-1.90;96.20
14884;DHT22;7534;50.762;7.000;2024-01-27T07:18:24;-1.90;96.30
14884;DHT22;7534;50.762;7.000;2024-01-27T07:20:50;-1.90;96.30
14884;DHT22;7534;50.762;7.000;2024-01-27T07:23:16;-1.90;96.40
14884;DHT22;7534;50.762;7.000;2024-01-27T07:25:43;-1.90;96.40
14884;DHT22;7534;50.762;7.000;2024-01-27T07:28:09;-1.90;96.80
14884;DHT22;7534;50.762;7.000;2024-01-27T07:30:35;-1.80;97.10
14884;DHT22;7534;50.762;7.000;2024-01-27T07:33:02;-1.80;97.30
14884;DHT22;7534;50.762;7.000;2024-01-27T07:35:28;-1.70;97.50
14884;DHT22;7534;50.762;7.000;2024-01-27T07:37:57;-1.60;97.80
14884;DHT22;7534;50.762;7.000;2024-01-27T07:40:23;-1.50;97.80
14884;DHT22;7534;50.762;7.000;2024-01-27T07:42:48;-1.40;97.90
14884;DHT22;7534;50.762;7.000;2024-01-27T07:45:14;-1.30;98.00
14884;DHT22;7534;50.762;7.000;2024-01-27T07:47:41;-1.10;98.20
14884;DHT22;7534;50.762;7.000;2024-01-27T07:50:07;-0.80;98.40
14884;DHT22;7534;50.762;7.000;2024-01-27T07:52:35;-0.70;98.40
14884;DHT22;7534;50.762;7.000;2024-01-27T07:55:01;-0.60;98.30
14884;DHT22;7534;50.762;7.000;2024-01-27T07:57:27;-0.50;98.00
14884;DHT22;7534;50.762;7.000;2024-01-27T07:59:53;-0.40;97.90
14884;DHT22;7534;50.762;7.000;2024-01-27T08:02:19;-0.30;97.90
14884;DHT22;7534;50.762;7.000;2024-01-27T08:04:45;-0.20;97.70
14884;DHT22;7534;50.762;7.000;2024-01-27T08:07:10;-0.10;97.60
14884;DHT22;7534;50.762;7.000;2024-01-27T08:09:37;0.00;97.50
14884;DHT22;7534;50.762;7.000;2024-01-27T08:12:03;0.10;97.30
14884;DHT22;7534;50.762;7.000;2024-01-27T08:14:29;0.20;97.30
14884;DHT22;7534;50.762;7.000;2024-01-27T08:16:56;0.40;97.20
14884;DHT22;7534;50.762;7.000;2024-01-27T08:19:23;1.50;98.10
14884;DHT22;7534;50.762;7.000;2024-01-27T08:21:49;3.70;93.30
14884;DHT22;7534;50.762;7.000;2024-01-27T08:24:14;5.80;81.50
14884;DHT22;7534;50.762;7.000;2024-01-27T08:26:41;7.50;71.90
14884;DHT22;7534;50.762;7.000;2024-01-27T08:29:08;8.80;65.30
14884;DHT22;7534;50.762;7.000;2024-01-27T08:31:34;9.70;61.60
14884;DHT22;7534;50.762;7.000;2024-01-27T08:34:00;10.80;60.40
14884;DHT22;7534;50.762;7.000;2024-01-27T08:36:26;11.10;54.90
14884;DHT22;7534;50.762;7.000;2024-01-27T08:38:52;11.50;52.90
14884;DHT22;7534;50.762;7.000;2024-01-27T08:41:18;11.90;50.60
14884;DHT22;7534;50.762;7.000;2024-01-27T08:43:43;12.10;49.30
14884;DHT22;7534;50.762;7.000;2024-01-27T08:46:09;12.40;47.60
14884;DHT22;7534;50.762;7.000;2024-01-27T08:48:37;12.50;47.20
14884;DHT22;7534;50.762;7.000;2024-01-27T08:51:04;12.40;47.30
14884;DHT22;7534;50.762;7.000;2024-01-27T08:53:29;12.00;48.10
14884;DHT22;7534;50.762;7.000;2024-01-27T08:55:55;12.20;48.70
14884;DHT22;7534;50.762;7.000;2024-01-27T08:58:21;12.50;46.40
14884;DHT22;7534;50.762;7.000;2024-01-27T09:00:47;12.00;48.40
14884;DHT22;7534;50.762;7.000;2024-01-27T09:03:12;12.20;48.40
14884;DHT22;7534;50.762;7.000;2024-01-27T09:05:39;12.10;49.20
14884;DHT22;7534;50.762;7.000;2024-01-27T09:08:09;13.40;46.30
14884;DHT22;7534;50.762;7.000;2024-01-27T09:10:34;13.30;45.90
14884;DHT22;7534;50.762;7.000;2024-01-27T09:13:00;12.90;46.10
14884;DHT22;7534;50.762;7.000;2024-01-27T09:15:26;13.60;45.00
14884;DHT22;7534;50.762;7.000;2024-01-27T09:17:52;13.90;43.50
14884;DHT22;7534;50.762;7.000;2024-01-27T09:20:17;14.60;42.00
14884;DHT22;7534;50.762;7.000;2024-01-27T09:22:44;14.80;42.10
14884;DHT22;7534;50.762;7.000;2024-01-27T09:25:13;15.00;40.80
14884;DHT22;7534;50.762;7.000;2024-01-27T09:27:39;15.00;40.40
14884;DHT22;7534;50.762;7.000;2024-01-27T09:30:05;15.30;40.70
14884;DHT22;7534;50.762;7.000;2024-01-27T09:32:32;15.80;39.70
14884;DHT22;7534;50.762;7.000;2024-01-27T09:34:58;16.10;38.70
14884;DHT22;7534;50.762;7.000;2024-01-27T09:37:23;15.90;39.10
14884;DHT22;7534;50.762;7.000;2024-01-27T09:39:49;16.10;40.60
14884;DHT22;7534;50.762;7.000;2024-01-27T09:42:15;16.20;38.30
14884;DHT22;7534;50.762;7.000;2024-01-27T09:44:43;15.80;39.00
14884;DHT22;7534;50.762;7.000;2024-01-27T09:47:11;15.90;38.90
14884;DHT22;7534;50.762;7.000;2024-01-27T09:49:39;15.40;39.80
14884;DHT22;7534;50.762;7.000;2024-01-27T09:52:09;14.90;41.20
14884;DHT22;7534;50.762;7.000;2024-01-27T09:54:35;14.90;40.30
14884;DHT22;7534;50.762;7.000;2024-01-27T09:57:02;14.20;41.50
14884;DHT22;7534;50.762;7.000;2024-01-27T09:59:29;14.10;42.40
14884;DHT22;7534;50.762;7.000;2024-01-27T10:01:56;14.20;42.50
14884;DHT22;7534;50.762;7.000;2024-01-27T10:04:24;14.00;41.40
14884;DHT22;7534;50.762;7.000;2024-01-27T10:06:50;13.60;42.70
14884;DHT22;7534;50.762;7.000;2024-01-27T10:09:17;12.70;43.90
14884;DHT22;7534;50.762;7.000;2024-01-27T10:11:47;11.40;48.40
14884;DHT22;7534;50.762;7.000;2024-01-27T10:14:15;10.00;52.30
14884;DHT22;7534;50.762;7.000;2024-01-27T10:16:42;8.90;56.10
14884;DHT22;7534;50.762;7.000;2024-01-27T10:19:17;8.20;58.90
14884;DHT22;7534;50.762;7.000;2024-01-27T10:21:47;7.70;61.20
14884;DHT22;7534;50.762;7.000;2024-01-27T10:24:14;7.40;62.90
14884;DHT22;7534;50.762;7.000;2024-01-27T10:26:40;7.20;63.70
14884;DHT22;7534;50.762;7.000;2024-01-27T10:29:05;6.90;64.90
14884;DHT22;7534;50.762;7.000;2024-01-27T10:31:34;6.70;65.50
14884;DHT22;7534;50.762;7.000;2024-01-27T10:34:01;6.80;65.80
14884;DHT22;7534;50.762;7.000;2024-01-27T10:36:39;6.70;65.90
14884;DHT22;7534;50.762;7.000;2024-01-27T10:39:22;6.50;66.40
14884;DHT22;7534;50.762;7.000;2024-01-27T10:41:49;6.50;66.90
14884;DHT22;7534;50.762;7.000;2024-01-27T10:44:17;6.80;66.60
14884;DHT22;7534;50.762;7.000;2024-01-27T10:46:48;6.80;65.80
14884;DHT22;7534;50.762;7.000;2024-01-27T10:49:16;6.80;66.30
14884;DHT22;7534;50.762;7.000;2024-01-27T10:51:54;6.80;66.20
14884;DHT22;7534;50.762;7.000;2024-01-27T10:54:28;6.90;66.00
14884;DHT22;7534;50.762;7.000;2024-01-27T10:56:56;7.00;66.00
14884;DHT22;7534;50.762;7.000;2024-01-27T10:59:26;7.00;65.30
14884;DHT22;7534;50.762;7.000;2024-01-27T11:01:54;7.10;65.60
14884;DHT22;7534;50.762;7.000;2024-01-27T11:04:22;7.20;65.60
14884;DHT22;7534;50.762;7.000;2024-01-27T11:06:48;7.20;65.40
14884;DHT22;7534;50.762;7.000;2024-01-27T11:09:15;7.20;65.50
14884;DHT22;7534;50.762;7.000;2024-01-27T11:11:42;7.10;64.70
14884;DHT22;7534;50.762;7.000;2024-01-27T11:14:12;7.00;64.60
14884;DHT22;7534;50.762;7.000;2024-01-27T11:16:38;7.10;65.10
14884;DHT22;7534;50.762;7.000;2024-01-27T11:19:13;7.10;65.20
14884;DHT22;7534;50.762;7.000;2024-01-27T11:21:42;7.30;64.80
14884;DHT22;7534;50.762;7.000;2024-01-27T11:24:15;7.50;65.10
14884;DHT22;7534;50.762;7.000;2024-01-27T11:26:42;7.70;64.60
14884;DHT22;7534;50.762;7.000;2024-01-27T11:29:08;7.70;65.00
14884;DHT22;7534;50.762;7.000;2024-01-27T11:31:40;7.60;65.60
14884;DHT22;7534;50.762;7.000;2024-01-27T11:34:10;7.60;65.60
14884;DHT22;7534;50.762;7.000;2024-01-27T11:36:43;7.50;65.20
14884;DHT22;7534;50.762;7.000;2024-01-27T11:39:29;7.50;64.90
14884;DHT22;7534;50.762;7.000;2024-01-27T11:42:09;7.50;65.10
14884;DHT22;7534;50.762;7.000;2024-01-27T11:44:39;7.60;64.70
14884;DHT22;7534;50.762;7.000;2024-01-27T11:47:14;7.80;64.00
14884;DHT22;7534;50.762;7.000;2024-01-27T11:49:50;7.80;62.70
14884;DHT22;7534;50.762;7.000;2024-01-27T11:52:21;7.90;63.20
14884;DHT22;7534;50.762;7.000;2024-01-27T11:55:00;8.00;62.90
14884;DHT22;7534;50.762;7.000;2024-01-27T11:57:27;8.20;62.90
14884;DHT22;7534;50.762;7.000;2024-01-27T11:59:53;8.20;62.60
14884;DHT22;7534;50.762;7.000;2024-01-27T12:02:20;8.20;62.30
14884;DHT22;7534;50.762;7.000;2024-01-27T12:04:47;8.30;62.10
14884;DHT22;7534;50.762;7.000;2024-01-27T12:07:14;8.40;62.50
14884;DHT22;7534;50.762;7.000;2024-01-27T12:09:40;8.40;62.20
14884;DHT22;7534;50.762;7.000;2024-01-27T12:12:06;8.40;62.30
14884;DHT22;7534;50.762;7.000;2024-01-27T12:14:47;8.50;61.60
14884;DHT22;7534;50.762;7.000;2024-01-27T12:17:14;8.50;61.90
14884;DHT22;7534;50.762;7.000;2024-01-27T12:19:46;8.50;61.80
14884;DHT22;7534;50.762;7.000;2024-01-27T12:22:24;8.60;61.20
14884;DHT22;7534;50.762;7.000;2024-01-27T12:25:08;8.60;60.50
14884;DHT22;7534;50.762;7.000;2024-01-27T12:27:35;8.60;60.00
14884;DHT22;7534;50.762;7.000;2024-01-27T12:30:02;8.60;60.50
14884;DHT22;7534;50.762;7.000;2024-01-27T12:32:29;8.70;59.50
14884;DHT22;7534;50.762;7.000;2024-01-27T12:34:55;8.70;59.90
14884;DHT22;7534;50.762;7.000;2024-01-27T12:37:23;8.70;59.40
14884;DHT22;7534;50.762;7.000;2024-01-27T12:39:50;8.80;58.80
14884;DHT22;7534;50.762;7.000;2024-01-27T12:42:17;8.70;59.30
14884;DHT22;7534;50.762;7.000;2024-01-27T12:44:43;8.70;59.20
14884;DHT22;7534;50.762;7.000;2024-01-27T12:47:11;8.80;58.80
14884;DHT22;7534;50.762;7.000;2024-01-27T12:49:37;8.80;59.90
14884;DHT22;7534;50.762;7.000;2024-01-27T12:52:03;8.70;60.00
14884;DHT22;7534;50.762;7.000;2024-01-27T12:54:29;8.80;59.20
14884;DHT22;7534;50.762;7.000;2024-01-27T12:56:56;8.80;58.60
14884;DHT22;7534;50.762;7.000;2024-01-27T12:59:22;8.80;58.60
14884;DHT22;7534;50.762;7.000;2024-01-27T13:01:49;8.90;58.10
14884;DHT22;7534;50.762;7.000;2024-01-27T13:04:15;8.90;57.70
14884;DHT22;7534;50.762;7.000;2024-01-27T13:06:41;8.90;56.80
14884;DHT22;7534;50.762;7.000;2024-01-27T13:09:10;8.80;56.70
14884;DHT22;7534;50.762;7.000;2024-01-27T13:11:39;8.70;57.30
14884;DHT22;7534;50.762;7.000;2024-01-27T13:14:05;8.70;57.50
14884;DHT22;7534;50.762;7.000;2024-01-27T13:16:32;8.80;57.30
14884;DHT22;7534;50.762;7.000;2024-01-27T13:18:58;8.70;57.10
14884;DHT22;7534;50.762;7.000;2024-01-27T13:21:24;8.70;56.70
14884;DHT22;7534;50.762;7.000;2024-01-27T13:23:50;8.60;57.20
14884;DHT22;7534;50.762;7.000;2024-01-27T13:26:18;8.70;57.20
14884;DHT22;7534;50.762;7.000;2024-01-27T13:28:44;8.70;56.30
14884;DHT22;7534;50.762;7.000;2024-01-27T13:31:11;8.70;55.80
14884;DHT22;7534;50.762;7.000;2024-01-27T13:33:36;8.60;55.90
14884;DHT22;7534;50.762;7.000;2024-01-27T13:36:02;8.70;54.80
14884;DHT22;7534;50.762;7.000;2024-01-27T13:38:29;8.60;55.10
14884;DHT22;7534;50.762;7.000;2024-01-27T13:40:55;8.50;55.60
14884;DHT22;7534;50.762;7.000;2024-01-27T13:43:21;8.50;56.10
14884;DHT22;7534;50.762;7.000;2024-01-27T13:45:47;8.40;55.80
14884;DHT22;7534;50.762;7.000;2024-01-27T13:48:13;8.30;56.60
14884;DHT22;7534;50.762;7.000;2024-01-27T13:50:39;8.30;56.40
14884;DHT22;7534;50.762;7.000;2024-01-27T13:53:06;8.30;57.30
14884;DHT22;7534;50.762;7.000;2024-01-27T13:55:32;8.20;56.60
14884;DHT22;7534;50.762;7.000;2024-01-27T13:57:58;8.20;57.10
14884;DHT22;7534;50.762;7.000;2024-01-27T14:00:25;8.20;56.50
14884;DHT22;7534;50.762;7.000;2024-01-27T14:02:50;8.20;56.10
14884;DHT22;7534;50.762;7.000;2024-01-27T14:05:16;8.20;55.60
14884;DHT22;7534;50.762;7.000;2024-01-27T14:07:42;8.10;56.20
14884;DHT22;7534;50.762;7.000;2024-01-27T14:10:09;8.10;56.30
14884;DHT22;7534;50.762;7.000;2024-01-27T14:12:36;8.10;58.80
14884;DHT22;7534;50.762;7.000;2024-01-27T14:15:05;8.10;59.20
14884;DHT22;7534;50.762;7.000;2024-01-27T14:17:35;8.20;59.00
14884;DHT22;7534;50.762;7.000;2024-01-27T14:20:03;8.30;59.70
14884;DHT22;7534;50.762;7.000;2024-01-27T14:22:30;8.30;59.60
14884;DHT22;7534;50.762;7.000;2024-01-27T14:24:56;8.30;60.00
14884;DHT22;7534;50.762;7.000;2024-01-27T14:27:22;8.30;60.20
14884;DHT22;7534;50.762;7.000;2024-01-27T14:29:57;8.30;60.20
14884;DHT22;7534;50.762;7.000;2024-01-27T14:32:23;8.20;59.80
14884;DHT22;7534;50.762;7.000;2024-01-27T14:34:49;8.30;58.60
14884;DHT22;7534;50.762;7.000;2024-01-27T14:37:16;8.30;58.60
14884;DHT22;7534;50.762;7.000;2024-01-27T14:39:48;8.20;58.40
14884;DHT22;7534;50.762;7.000;2024-01-27T14:42:14;8.30;58.90
14884;DHT22;7534;50.762;7.000;2024-01-27T14:44:42;8.30;58.50
14884;DHT22;7534;50.762;7.000;2024-01-27T14:47:11;8.30;58.30
14884;DHT22;7534;50.762;7.000;2024-01-27T14:49:40;8.30;58.00
14884;DHT22;7534;50.762;7.000;2024-01-27T14:52:09;8.30;57.50
14884;DHT22;7534;50.762;7.000;2024-01-27T14:54:39;8.40;57.70
14884;DHT22;7534;50.762;7.000;2024-01-27T14:57:06;8.40;57.00
14884;DHT22;7534;50.762;7.000;2024-01-27T14:59:35;8.40;56.80
14884;DHT22;7534;50.762;7.000;2024-01-27T15:02:01;8.20;57.40
14884;DHT22;7534;50.762;7.000;2024-01-27T15:04:27;8.20;57.40
14884;DHT22;7534;50.762;7.000;2024-01-27T15:06:56;8.10;57.80
14884;DHT22;7534;50.762;7.000;2024-01-27T15:09:24;8.10;57.70
14884;DHT22;7534;50.762;7.000;2024-01-27T15:11:50;8.10;57.70
14884;DHT22;7534;50.762;7.000;2024-01-27T15:14:17;8.00;57.80
14884;DHT22;7534;50.762;7.000;2024-01-27T15:16:44;7.90;58.30
14884;DHT22;7534;50.762;7.000;2024-01-27T15:19:10;7.80;58.80
14884;DHT22;7534;50.762;7.000;2024-01-27T15:21:37;7.70;58.90
14884;DHT22;7534;50.762;7.000;2024-01-27T15:24:03;7.60;58.40
14884;DHT22;7534;50.762;7.000;2024-01-27T15:26:29;7.50;58.90
14884;DHT22;7534;50.762;7.000;2024-01-27T15:28:57;7.40;59.30
14884;DHT22;7534;50.762;7.000;2024-01-27T15:31:23;7.30;59.60
14884;DHT22;7534;50.762;7.000;2024-01-27T15:33:50;7.20;60.00
14884;DHT22;7534;50.762;7.000;2024-01-27T15:36:16;7.20;59.90
14884;DHT22;7534;50.762;7.000;2024-01-27T15:38:42;7.20;60.40
14884;DHT22;7534;50.762;7.000;2024-01-27T15:41:09;7.00;61.00
14884;DHT22;7534;50.762;7.000;2024-01-27T15:43:35;6.70;62.20
14884;DHT22;7534;50.762;7.000;2024-01-27T15:46:01;6.50;63.30
14884;DHT22;7534;50.762;7.000;2024-01-27T15:48:34;6.20;64.60
14884;DHT22;7534;50.762;7.000;2024-01-27T15:51:02;6.00;65.80
14884;DHT22;7534;50.762;7.000;2024-01-27T15:53:29;5.80;66.60
14884;DHT22;7534;50.762;7.000;2024-01-27T15:55:55;5.50;67.60